sensor_id;sensor_type;location;lat;lon;timestamp;temperature;humidity
39849;DHT22;25518;47.878;15.914;2023-02-28T07:15:56;-3.50;99.90
39849;DHT22;25518;47.878;15.914;2023-02-28T09:11:48;0.00;99.90
39849;DHT22;25518;47.878;15.914;2023-02-28T09:14:37;0.10;99.90
39849;DHT22;25518;47.878;15.914;2023-02-28T09:17:27;0.10;99.90
39849;DHT22;25518;47.878;15.914;2023-02-28T09:20:17;0.20;99.90
39849;DHT22;25518;47.878;15.914;2023-02-28T09:23:07;-0.70;99.90
39849;DHT22;25518;47.878;15.914;2023-02-28T09:25:57;0.30;99.90
39849;DHT22;25518;47.878;15.914;2023-02-28T09:28:48;0.50;99.90
39849;DHT22;25518;47.878;15.914;2023-02-28T09:31:37;0.50;99.90
39849;DHT22;25518;47.878;15.914;2023-02-28T09:34:28;0.10;99.90
39849;DHT22;25518;47.878;15.914;2023-02-28T09:37:20;0.70;99.90
39849;DHT22;25518;47.878;15.914;2023-02-28T09:40:11;0.90;99.90
39849;DHT22;25518;47.878;15.914;2023-02-28T09:43:01;1.00;99.90
39849;DHT22;25518;47.878;15.914;2023-02-28T09:45:59;1.00;99.90
39849;DHT22;25518;47.878;15.914;2023-02-28T09:48:51;1.10;99.90
39849;DHT22;25518;47.878;15.914;2023-02-28T09:54:33;1.10;99.90
39849;DHT22;25518;47.878;15.914;2023-02-28T10:06:03;1.30;99.90
39849;DHT22;25518;47.878;15.914;2023-02-28T10:09:30;1.30;99.90
39849;DHT22;25518;47.878;15.914;2023-02-28T10:12:10;1.40;99.90
39849;DHT22;25518;47.878;15.914;2023-02-28T10:15:01;1.40;99.90
39849;DHT22;25518;47.878;15.914;2023-02-28T10:17:58;1.40;99.90
39849;DHT22;25518;47.878;15.914;2023-02-28T10:20:51;1.00;99.90
39849;DHT22;25518;47.878;15.914;2023-02-28T10:23:41;1.40;99.90
39849;DHT22;25518;47.878;15.914;2023-02-28T10:26:34;1.50;99.90
39849;DHT22;25518;47.878;15.914;2023-02-28T10:29:27;1.60;99.90
39849;DHT22;25518;47.878;15.914;2023-02-28T10:32:23;1.60;99.90
39849;DHT22;25518;47.878;15.914;2023-02-28T10:35:16;1.80;99.90
39849;DHT22;25518;47.878;15.914;2023-02-28T10:38:16;1.70;99.90
39849;DHT22;25518;47.878;15.914;2023-02-28T10:41:28;1.90;99.90
39849;DHT22;25518;47.878;15.914;2023-02-28T10:44:21;1.90;99.90
39849;DHT22;25518;47.878;15.914;2023-02-28T10:47:16;2.00;99.90
39849;DHT22;25518;47.878;15.914;2023-02-28T10:50:28;2.40;99.90
39849;DHT22;25518;47.878;15.914;2023-02-28T10:53:47;2.70;99.90
39849;DHT22;25518;47.878;15.914;2023-02-28T10:56:37;2.80;99.90
39849;DHT22;25518;47.878;15.914;2023-02-28T10:59:30;3.00;99.90
39849;DHT22;25518;47.878;15.914;2023-02-28T11:02:36;3.20;99.90
39849;DHT22;25518;47.878;15.914;2023-02-28T11:05:34;3.20;99.90
39849;DHT22;25518;47.878;15.914;2023-02-28T11:08:24;3.20;99.90
39849;DHT22;25518;47.878;15.914;2023-02-28T11:11:14;3.40;99.90
39849;DHT22;25518;47.878;15.914;2023-02-28T11:14:06;3.40;99.90
39849;DHT22;25518;47.878;15.914;2023-02-28T11:17:19;3.50;99.90
39849;DHT22;25518;47.878;15.914;2023-02-28T11:20:20;3.20;99.90
39849;DHT22;25518;47.878;15.914;2023-02-28T11:23:13;3.50;99.90
39849;DHT22;25518;47.878;15.914;2023-02-28T11:26:04;3.70;99.90
39849;DHT22;25518;47.878;15.914;2023-02-28T16:39:41;0.20;99.90
39849;DHT22;25518;47.878;15.914;2023-02-28T20:31:48;-2.30;99.90
39849;DHT22;25518;47.878;15.914;2023-02-28T23:00:53;-2.50;99.90
39849;DHT22;25518;47.878;15.914;2023-02-28T23:03:43;-2.60;99.90
